sensor_id;sensor_type;location;lat;lon;timestamp;P1;durP1;ratioP1;P2;durP2;ratioP2
14470;SDS011;7321;50.802;4.336;2023-05-10T00:01:52;10.00;;;8.03;;
14470;SDS011;7321;50.802;4.336;2023-05-10T00:04:17;12.43;;;8.83;;
14470;SDS011;7321;50.802;4.336;2023-05-10T00:06:43;11.47;;;8.43;;
14470;SDS011;7321;50.802;4.336;2023-05-10T00:09:09;12.77;;;8.47;;
14470;SDS011;7321;50.802;4.336;2023-05-10T00:11:35;15.47;;;9.30;;
14470;SDS011;7321;50.802;4.336;2023-05-10T00:14:01;11.90;;;8.90;;
14470;SDS011;7321;50.802;4.336;2023-05-10T00:16:27;16.40;;;9.13;;
14470;SDS011;7321;50.802;4.336;2023-05-10T00:18:52;14.57;;;8.77;;
14470;SDS011;7321;50.802;4.336;2023-05-10T00:21:18;16.03;;;8.90;;
14470;SDS011;7321;50.802;4.336;2023-05-10T00:23:44;10.17;;;8.30;;
14470;SDS011;7321;50.802;4.336;2023-05-10T00:26:10;13.10;;;8.67;;
14470;SDS011;7321;50.802;4.336;2023-05-10T00:28:36;12.40;;;8.03;;
14470;SDS011;7321;50.802;4.336;2023-05-10T00:31:02;15.83;;;9.07;;
14470;SDS011;7321;50.802;4.336;2023-05-10T00:33:28;10.50;;;8.73;;
14470;SDS011;7321;50.802;4.336;2023-05-10T00:35:54;11.93;;;8.97;;
14470;SDS011;7321;50.802;4.336;2023-05-10T00:38:20;13.97;;;9.37;;
14470;SDS011;7321;50.802;4.336;2023-05-10T00:40:46;13.97;;;9.50;;
14470;SDS011;7321;50.802;4.336;2023-05-10T00:43:12;15.63;;;9.67;;
14470;SDS011;7321;50.802;4.336;2023-05-10T00:45:38;13.83;;;10.13;;
14470;SDS011;7321;50.802;4.336;2023-05-10T00:48:06;15.53;;;10.10;;
14470;SDS011;7321;50.802;4.336;2023-05-10T00:50:32;14.53;;;9.77;;
14470;SDS011;7321;50.802;4.336;2023-05-10T00:52:59;15.50;;;10.47;;
14470;SDS011;7321;50.802;4.336;2023-05-10T00:55:26;12.83;;;9.47;;
14470;SDS011;7321;50.802;4.336;2023-05-10T00:57:52;14.47;;;10.50;;
14470;SDS011;7321;50.802;4.336;2023-05-10T01:00:19;13.27;;;9.80;;
14470;SDS011;7321;50.802;4.336;2023-05-10T01:02:45;13.37;;;9.77;;
14470;SDS011;7321;50.802;4.336;2023-05-10T01:05:11;14.63;;;10.37;;
14470;SDS011;7321;50.802;4.336;2023-05-10T01:07:38;13.13;;;10.37;;
14470;SDS011;7321;50.802;4.336;2023-05-10T01:12:49;16.90;;;10.07;;
14470;SDS011;7321;50.802;4.336;2023-05-10T01:15:15;14.60;;;9.87;;
14470;SDS011;7321;50.802;4.336;2023-05-10T01:17:43;13.10;;;10.50;;
14470;SDS011;7321;50.802;4.336;2023-05-10T01:20:10;15.87;;;11.07;;
14470;SDS011;7321;50.802;4.336;2023-05-10T01:25:49;16.07;;;11.37;;
14470;SDS011;7321;50.802;4.336;2023-05-10T01:34:23;17.67;;;11.30;;
14470;SDS011;7321;50.802;4.336;2023-05-10T01:36:59;17.80;;;11.37;;
14470;SDS011;7321;50.802;4.336;2023-05-10T01:39:44;14.47;;;10.57;;
14470;SDS011;7321;50.802;4.336;2023-05-10T01:42:16;13.17;;;11.17;;
14470;SDS011;7321;50.802;4.336;2023-05-10T01:44:53;17.50;;;12.03;;
14470;SDS011;7321;50.802;4.336;2023-05-10T01:47:20;15.90;;;12.30;;
14470;SDS011;7321;50.802;4.336;2023-05-10T01:50:06;20.30;;;12.30;;
14470;SDS011;7321;50.802;4.336;2023-05-10T01:52:42;12.77;;;10.53;;
14470;SDS011;7321;50.802;4.336;2023-05-10T01:55:15;17.40;;;11.73;;
14470;SDS011;7321;50.802;4.336;2023-05-10T01:57:43;16.33;;;12.80;;
14470;SDS011;7321;50.802;4.336;2023-05-10T02:00:11;16.30;;;11.97;;
14470;SDS011;7321;50.802;4.336;2023-05-10T02:02:42;16.03;;;12.40;;
14470;SDS011;7321;50.802;4.336;2023-05-10T02:05:12;13.73;;;11.40;;
14470;SDS011;7321;50.802;4.336;2023-05-10T02:07:40;16.70;;;12.30;;
14470;SDS011;7321;50.802;4.336;2023-05-10T02:10:07;20.03;;;13.30;;
14470;SDS011;7321;50.802;4.336;2023-05-10T02:12:35;15.87;;;12.70;;
14470;SDS011;7321;50.802;4.336;2023-05-10T02:15:05;15.90;;;11.87;;
14470;SDS011;7321;50.802;4.336;2023-05-10T02:17:32;15.67;;;12.20;;
14470;SDS011;7321;50.802;4.336;2023-05-10T02:20:00;16.73;;;12.00;;
14470;SDS011;7321;50.802;4.336;2023-05-10T02:22:27;17.53;;;11.50;;
14470;SDS011;7321;50.802;4.336;2023-05-10T02:24:54;16.03;;;10.53;;
14470;SDS011;7321;50.802;4.336;2023-05-10T02:27:22;15.53;;;10.53;;
14470;SDS011;7321;50.802;4.336;2023-05-10T02:29:51;13.77;;;10.77;;
14470;SDS011;7321;50.802;4.336;2023-05-10T02:32:17;15.13;;;10.20;;
14470;SDS011;7321;50.802;4.336;2023-05-10T02:34:44;14.27;;;10.63;;
14470;SDS011;7321;50.802;4.336;2023-05-10T02:37:14;14.20;;;10.93;;
14470;SDS011;7321;50.802;4.336;2023-05-10T02:39:43;14.57;;;9.87;;
14470;SDS011;7321;50.802;4.336;2023-05-10T02:42:15;13.63;;;9.70;;
14470;SDS011;7321;50.802;4.336;2023-05-10T02:44:45;13.77;;;9.67;;
14470;SDS011;7321;50.802;4.336;2023-05-10T02:47:13;12.40;;;9.13;;
14470;SDS011;7321;50.802;4.336;2023-05-10T02:49:39;13.30;;;9.23;;
14470;SDS011;7321;50.802;4.336;2023-05-10T02:52:05;11.17;;;8.50;;
14470;SDS011;7321;50.802;4.336;2023-05-10T02:54:37;11.10;;;8.80;;
14470;SDS011;7321;50.802;4.336;2023-05-10T02:57:08;12.23;;;9.20;;
14470;SDS011;7321;50.802;4.336;2023-05-10T02:59:40;15.10;;;9.40;;
14470;SDS011;7321;50.802;4.336;2023-05-10T03:02:08;12.70;;;9.57;;
14470;SDS011;7321;50.802;4.336;2023-05-10T03:04:35;14.67;;;9.53;;
14470;SDS011;7321;50.802;4.336;2023-05-10T03:07:01;13.50;;;9.00;;
14470;SDS011;7321;50.802;4.336;2023-05-10T03:09:27;13.53;;;9.73;;
14470;SDS011;7321;50.802;4.336;2023-05-10T03:11:55;13.53;;;9.57;;
14470;SDS011;7321;50.802;4.336;2023-05-10T03:20:24;14.03;;;10.70;;
14470;SDS011;7321;50.802;4.336;2023-05-10T03:22:55;17.53;;;10.87;;
14470;SDS011;7321;50.802;4.336;2023-05-10T03:25:31;17.10;;;11.10;;
14470;SDS011;7321;50.802;4.336;2023-05-10T03:27:57;15.60;;;11.57;;
14470;SDS011;7321;50.802;4.336;2023-05-10T03:30:24;16.87;;;11.27;;
14470;SDS011;7321;50.802;4.336;2023-05-10T03:32:51;17.77;;;12.63;;
14470;SDS011;7321;50.802;4.336;2023-05-10T03:35:16;17.40;;;11.80;;
14470;SDS011;7321;50.802;4.336;2023-05-10T03:37:42;17.83;;;12.77;;
14470;SDS011;7321;50.802;4.336;2023-05-10T03:40:08;17.93;;;12.40;;
14470;SDS011;7321;50.802;4.336;2023-05-10T03:42:34;18.53;;;11.73;;
14470;SDS011;7321;50.802;4.336;2023-05-10T03:45:00;22.47;;;12.33;;
14470;SDS011;7321;50.802;4.336;2023-05-10T03:47:26;18.73;;;13.30;;
14470;SDS011;7321;50.802;4.336;2023-05-10T03:49:52;15.87;;;12.07;;
14470;SDS011;7321;50.802;4.336;2023-05-10T03:52:18;16.13;;;12.37;;
14470;SDS011;7321;50.802;4.336;2023-05-10T03:54:44;18.43;;;12.47;;
14470;SDS011;7321;50.802;4.336;2023-05-10T03:57:10;18.43;;;13.10;;
14470;SDS011;7321;50.802;4.336;2023-05-10T03:59:35;19.80;;;13.20;;
14470;SDS011;7321;50.802;4.336;2023-05-10T04:02:01;18.33;;;13.53;;
14470;SDS011;7321;50.802;4.336;2023-05-10T04:04:27;17.73;;;12.43;;
14470;SDS011;7321;50.802;4.336;2023-05-10T04:06:53;22.57;;;14.17;;
14470;SDS011;7321;50.802;4.336;2023-05-10T04:09:19;20.07;;;14.10;;
14470;SDS011;7321;50.802;4.336;2023-05-10T04:11:45;20.87;;;12.97;;
14470;SDS011;7321;50.802;4.336;2023-05-10T04:14:11;17.00;;;12.97;;
14470;SDS011;7321;50.802;4.336;2023-05-10T04:16:37;20.23;;;13.77;;
14470;SDS011;7321;50.802;4.336;2023-05-10T04:19:03;21.50;;;14.00;;
14470;SDS011;7321;50.802;4.336;2023-05-10T04:21:29;22.03;;;14.10;;
14470;SDS011;7321;50.802;4.336;2023-05-10T04:23:55;19.23;;;14.13;;
14470;SDS011;7321;50.802;4.336;2023-05-10T04:26:21;19.10;;;13.63;;
14470;SDS011;7321;50.802;4.336;2023-05-10T04:28:47;17.70;;;13.60;;
14470;SDS011;7321;50.802;4.336;2023-05-10T04:31:13;19.77;;;13.47;;
14470;SDS011;7321;50.802;4.336;2023-05-10T04:33:41;19.87;;;13.20;;
14470;SDS011;7321;50.802;4.336;2023-05-10T04:36:07;16.17;;;12.40;;
14470;SDS011;7321;50.802;4.336;2023-05-10T04:38:33;15.60;;;10.80;;
14470;SDS011;7321;50.802;4.336;2023-05-10T04:41:03;15.10;;;10.40;;
14470;SDS011;7321;50.802;4.336;2023-05-10T04:43:30;16.23;;;10.93;;
14470;SDS011;7321;50.802;4.336;2023-05-10T04:45:56;16.50;;;10.90;;
14470;SDS011;7321;50.802;4.336;2023-05-10T04:48:22;15.53;;;10.17;;
14470;SDS011;7321;50.802;4.336;2023-05-10T04:50:48;12.53;;;10.20;;
14470;SDS011;7321;50.802;4.336;2023-05-10T04:53:14;13.00;;;9.07;;
14470;SDS011;7321;50.802;4.336;2023-05-10T04:55:39;16.50;;;9.90;;
14470;SDS011;7321;50.802;4.336;2023-05-10T04:58:05;12.90;;;9.20;;
14470;SDS011;7321;50.802;4.336;2023-05-10T05:00:31;12.13;;;9.30;;
14470;SDS011;7321;50.802;4.336;2023-05-10T05:02:58;14.47;;;9.80;;
14470;SDS011;7321;50.802;4.336;2023-05-10T05:05:24;14.60;;;10.07;;
14470;SDS011;7321;50.802;4.336;2023-05-10T05:07:50;14.37;;;9.43;;
14470;SDS011;7321;50.802;4.336;2023-05-10T05:10:16;15.17;;;10.40;;
14470;SDS011;7321;50.802;4.336;2023-05-10T05:12:42;15.50;;;10.90;;
14470;SDS011;7321;50.802;4.336;2023-05-10T05:15:08;14.20;;;10.37;;
14470;SDS011;7321;50.802;4.336;2023-05-10T05:17:34;15.33;;;11.63;;
14470;SDS011;7321;50.802;4.336;2023-05-10T05:20:00;17.13;;;12.30;;
14470;SDS011;7321;50.802;4.336;2023-05-10T05:22:26;16.03;;;11.37;;
14470;SDS011;7321;50.802;4.336;2023-05-10T05:24:53;14.80;;;11.97;;
14470;SDS011;7321;50.802;4.336;2023-05-10T05:27:19;17.10;;;12.13;;
14470;SDS011;7321;50.802;4.336;2023-05-10T05:29:51;16.97;;;12.47;;
14470;SDS011;7321;50.802;4.336;2023-05-10T05:32:18;19.00;;;11.57;;
14470;SDS011;7321;50.802;4.336;2023-05-10T05:34:44;16.37;;;10.87;;
14470;SDS011;7321;50.802;4.336;2023-05-10T05:37:14;18.83;;;11.57;;
14470;SDS011;7321;50.802;4.336;2023-05-10T05:39:41;15.90;;;11.20;;
14470;SDS011;7321;50.802;4.336;2023-05-10T05:42:08;19.50;;;12.63;;
14470;SDS011;7321;50.802;4.336;2023-05-10T05:44:34;17.53;;;11.17;;
14470;SDS011;7321;50.802;4.336;2023-05-10T05:47:00;16.63;;;12.03;;
14470;SDS011;7321;50.802;4.336;2023-05-10T05:49:26;19.63;;;12.40;;
14470;SDS011;7321;50.802;4.336;2023-05-10T05:51:52;16.80;;;11.07;;
14470;SDS011;7321;50.802;4.336;2023-05-10T05:54:18;17.27;;;11.13;;
14470;SDS011;7321;50.802;4.336;2023-05-10T05:56:43;19.60;;;11.83;;
14470;SDS011;7321;50.802;4.336;2023-05-10T05:59:12;18.63;;;11.10;;
14470;SDS011;7321;50.802;4.336;2023-05-10T06:01:38;18.57;;;11.10;;
14470;SDS011;7321;50.802;4.336;2023-05-10T06:04:04;16.03;;;9.93;;
14470;SDS011;7321;50.802;4.336;2023-05-10T06:06:29;17.03;;;9.10;;
14470;SDS011;7321;50.802;4.336;2023-05-10T06:08:57;12.93;;;8.57;;
14470;SDS011;7321;50.802;4.336;2023-05-10T06:11:23;13.43;;;8.20;;
14470;SDS011;7321;50.802;4.336;2023-05-10T06:13:49;28.90;;;22.07;;
14470;SDS011;7321;50.802;4.336;2023-05-10T06:16:15;10.23;;;7.50;;
14470;SDS011;7321;50.802;4.336;2023-05-10T06:18:41;13.80;;;7.30;;
14470;SDS011;7321;50.802;4.336;2023-05-10T06:21:06;12.80;;;7.43;;
14470;SDS011;7321;50.802;4.336;2023-05-10T06:23:32;13.27;;;7.23;;
14470;SDS011;7321;50.802;4.336;2023-05-10T06:25:58;10.87;;;7.50;;
14470;SDS011;7321;50.802;4.336;2023-05-10T06:28:24;10.13;;;7.10;;
14470;SDS011;7321;50.802;4.336;2023-05-10T06:30:50;8.30;;;7.07;;
14470;SDS011;7321;50.802;4.336;2023-05-10T06:33:15;8.50;;;7.17;;
14470;SDS011;7321;50.802;4.336;2023-05-10T06:35:41;8.57;;;6.10;;
14470;SDS011;7321;50.802;4.336;2023-05-10T06:38:07;7.30;;;5.90;;
14470;SDS011;7321;50.802;4.336;2023-05-10T06:40:33;7.10;;;6.00;;
14470;SDS011;7321;50.802;4.336;2023-05-10T06:42:58;9.27;;;5.43;;
14470;SDS011;7321;50.802;4.336;2023-05-10T06:45:24;11.60;;;6.70;;
14470;SDS011;7321;50.802;4.336;2023-05-10T06:47:50;7.67;;;4.90;;
14470;SDS011;7321;50.802;4.336;2023-05-10T06:50:16;6.43;;;5.33;;
14470;SDS011;7321;50.802;4.336;2023-05-10T06:52:42;5.70;;;5.20;;
14470;SDS011;7321;50.802;4.336;2023-05-10T06:55:08;6.60;;;4.83;;
14470;SDS011;7321;50.802;4.336;2023-05-10T06:57:34;6.00;;;5.40;;
14470;SDS011;7321;50.802;4.336;2023-05-10T07:00:00;6.20;;;5.00;;
14470;SDS011;7321;50.802;4.336;2023-05-10T07:02:26;10.87;;;6.23;;
14470;SDS011;7321;50.802;4.336;2023-05-10T07:04:52;5.47;;;4.90;;
14470;SDS011;7321;50.802;4.336;2023-05-10T07:07:18;7.30;;;5.60;;
14470;SDS011;7321;50.802;4.336;2023-05-10T07:09:44;8.17;;;5.50;;
14470;SDS011;7321;50.802;4.336;2023-05-10T07:12:11;10.43;;;6.13;;
14470;SDS011;7321;50.802;4.336;2023-05-10T07:14:36;6.47;;;5.37;;
14470;SDS011;7321;50.802;4.336;2023-05-10T07:17:02;9.40;;;7.00;;
14470;SDS011;7321;50.802;4.336;2023-05-10T07:19:28;11.13;;;6.90;;
14470;SDS011;7321;50.802;4.336;2023-05-10T07:21:55;8.80;;;6.57;;
14470;SDS011;7321;50.802;4.336;2023-05-10T07:24:20;7.83;;;6.33;;
14470;SDS011;7321;50.802;4.336;2023-05-10T07:26:46;10.30;;;6.60;;
14470;SDS011;7321;50.802;4.336;2023-05-10T07:29:12;10.30;;;7.03;;
14470;SDS011;7321;50.802;4.336;2023-05-10T07:31:38;12.43;;;7.90;;
14470;SDS011;7321;50.802;4.336;2023-05-10T07:34:04;12.23;;;7.67;;
14470;SDS011;7321;50.802;4.336;2023-05-10T07:36:30;9.27;;;6.97;;
14470;SDS011;7321;50.802;4.336;2023-05-10T07:38:56;10.33;;;6.63;;
14470;SDS011;7321;50.802;4.336;2023-05-10T07:41:22;10.73;;;7.60;;
14470;SDS011;7321;50.802;4.336;2023-05-10T07:43:48;10.63;;;6.77;;
14470;SDS011;7321;50.802;4.336;2023-05-10T07:46:14;8.53;;;6.40;;
14470;SDS011;7321;50.802;4.336;2023-05-10T07:48:40;7.77;;;6.37;;
14470;SDS011;7321;50.802;4.336;2023-05-10T07:51:06;9.17;;;6.43;;
14470;SDS011;7321;50.802;4.336;2023-05-10T07:53:34;8.87;;;6.20;;
14470;SDS011;7321;50.802;4.336;2023-05-10T07:56:19;7.77;;;6.00;;
14470;SDS011;7321;50.802;4.336;2023-05-10T07:58:55;5.33;;;4.70;;
14470;SDS011;7321;50.802;4.336;2023-05-10T08:01:22;5.87;;;5.20;;
14470;SDS011;7321;50.802;4.336;2023-05-10T08:03:48;6.57;;;4.97;;
14470;SDS011;7321;50.802;4.336;2023-05-10T08:06:16;5.30;;;4.80;;
14470;SDS011;7321;50.802;4.336;2023-05-10T08:08:43;5.67;;;5.07;;
14470;SDS011;7321;50.802;4.336;2023-05-10T08:11:14;5.67;;;4.40;;
14470;SDS011;7321;50.802;4.336;2023-05-10T08:13:40;6.17;;;4.50;;
14470;SDS011;7321;50.802;4.336;2023-05-10T08:16:06;6.70;;;4.60;;
14470;SDS011;7321;50.802;4.336;2023-05-10T08:18:32;6.83;;;4.67;;
14470;SDS011;7321;50.802;4.336;2023-05-10T08:20:58;5.17;;;4.03;;
14470;SDS011;7321;50.802;4.336;2023-05-10T08:23:23;6.27;;;4.50;;
14470;SDS011;7321;50.802;4.336;2023-05-10T08:25:49;4.20;;;3.80;;
14470;SDS011;7321;50.802;4.336;2023-05-10T08:28:31;5.73;;;4.33;;
14470;SDS011;7321;50.802;4.336;2023-05-10T08:30:56;4.20;;;3.80;;
14470;SDS011;7321;50.802;4.336;2023-05-10T08:33:22;4.43;;;3.40;;
14470;SDS011;7321;50.802;4.336;2023-05-10T08:35:48;4.10;;;3.50;;
14470;SDS011;7321;50.802;4.336;2023-05-10T08:38:14;7.60;;;6.90;;
14470;SDS011;7321;50.802;4.336;2023-05-10T08:40:41;3.93;;;3.57;;
14470;SDS011;7321;50.802;4.336;2023-05-10T08:43:08;4.47;;;4.07;;
14470;SDS011;7321;50.802;4.336;2023-05-10T08:45:41;4.40;;;3.50;;
14470;SDS011;7321;50.802;4.336;2023-05-10T08:48:08;6.20;;;4.83;;
14470;SDS011;7321;50.802;4.336;2023-05-10T08:50:36;5.07;;;4.07;;
14470;SDS011;7321;50.802;4.336;2023-05-10T08:53:06;5.30;;;4.03;;
14470;SDS011;7321;50.802;4.336;2023-05-10T08:55:38;4.60;;;4.20;;
14470;SDS011;7321;50.802;4.336;2023-05-10T08:58:08;6.33;;;3.83;;
14470;SDS011;7321;50.802;4.336;2023-05-10T09:00:35;4.97;;;3.73;;
14470;SDS011;7321;50.802;4.336;2023-05-10T09:03:03;4.50;;;3.63;;
14470;SDS011;7321;50.802;4.336;2023-05-10T09:05:32;5.90;;;3.80;;
14470;SDS011;7321;50.802;4.336;2023-05-10T09:07:58;5.53;;;4.93;;
14470;SDS011;7321;50.802;4.336;2023-05-10T09:10:25;5.47;;;4.47;;
14470;SDS011;7321;50.802;4.336;2023-05-10T09:12:53;7.30;;;5.10;;
14470;SDS011;7321;50.802;4.336;2023-05-10T09:15:21;4.90;;;4.40;;
14470;SDS011;7321;50.802;4.336;2023-05-10T09:17:47;10.53;;;9.10;;
14470;SDS011;7321;50.802;4.336;2023-05-10T09:20:20;27.73;;;20.07;;
14470;SDS011;7321;50.802;4.336;2023-05-10T09:22:46;12.73;;;11.27;;
14470;SDS011;7321;50.802;4.336;2023-05-10T09:25:16;6.60;;;5.50;;
14470;SDS011;7321;50.802;4.336;2023-05-10T09:27:45;4.93;;;4.43;;
14470;SDS011;7321;50.802;4.336;2023-05-10T09:30:16;5.00;;;4.50;;
14470;SDS011;7321;50.802;4.336;2023-05-10T09:32:44;6.57;;;4.40;;
14470;SDS011;7321;50.802;4.336;2023-05-10T09:35:12;8.60;;;3.80;;
14470;SDS011;7321;50.802;4.336;2023-05-10T09:37:40;5.10;;;4.60;;
14470;SDS011;7321;50.802;4.336;2023-05-10T09:40:12;4.63;;;4.17;;
14470;SDS011;7321;50.802;4.336;2023-05-10T09:42:38;4.40;;;4.00;;
14470;SDS011;7321;50.802;4.336;2023-05-10T09:45:06;4.47;;;4.07;;
14470;SDS011;7321;50.802;4.336;2023-05-10T09:47:33;4.80;;;4.27;;
14470;SDS011;7321;50.802;4.336;2023-05-10T09:50:01;4.43;;;4.03;;
14470;SDS011;7321;50.802;4.336;2023-05-10T09:52:29;5.00;;;4.60;;
14470;SDS011;7321;50.802;4.336;2023-05-10T09:54:58;4.80;;;4.30;;
14470;SDS011;7321;50.802;4.336;2023-05-10T09:57:24;5.23;;;4.73;;
14470;SDS011;7321;50.802;4.336;2023-05-10T09:59:51;5.73;;;4.70;;
14470;SDS011;7321;50.802;4.336;2023-05-10T10:02:19;6.00;;;4.40;;
14470;SDS011;7321;50.802;4.336;2023-05-10T10:04:45;5.40;;;4.90;;
14470;SDS011;7321;50.802;4.336;2023-05-10T10:07:14;5.00;;;4.50;;
14470;SDS011;7321;50.802;4.336;2023-05-10T10:09:40;5.10;;;4.43;;
14470;SDS011;7321;50.802;4.336;2023-05-10T10:12:06;5.13;;;4.53;;
14470;SDS011;7321;50.802;4.336;2023-05-10T10:14:31;5.00;;;4.50;;
14470;SDS011;7321;50.802;4.336;2023-05-10T10:17:00;5.77;;;5.27;;
14470;SDS011;7321;50.802;4.336;2023-05-10T10:19:26;5.63;;;5.00;;
14470;SDS011;7321;50.802;4.336;2023-05-10T10:21:52;5.47;;;4.73;;
14470;SDS011;7321;50.802;4.336;2023-05-10T10:24:18;5.17;;;4.70;;
14470;SDS011;7321;50.802;4.336;2023-05-10T10:26:44;5.90;;;5.40;;
14470;SDS011;7321;50.802;4.336;2023-05-10T10:29:27;6.83;;;4.80;;
14470;SDS011;7321;50.802;4.336;2023-05-10T10:32:49;5.53;;;4.50;;
14470;SDS011;7321;50.802;4.336;2023-05-10T10:35:23;5.87;;;5.13;;
14470;SDS011;7321;50.802;4.336;2023-05-10T10:37:50;6.43;;;5.50;;
14470;SDS011;7321;50.802;4.336;2023-05-10T10:40:23;6.87;;;5.10;;
14470;SDS011;7321;50.802;4.336;2023-05-10T10:42:51;5.97;;;5.23;;
14470;SDS011;7321;50.802;4.336;2023-05-10T10:45:17;6.17;;;5.17;;
14470;SDS011;7321;50.802;4.336;2023-05-10T10:47:43;6.83;;;4.90;;
14470;SDS011;7321;50.802;4.336;2023-05-10T10:50:10;6.25;;;4.50;;
14470;SDS011;7321;50.802;4.336;2023-05-10T10:52:41;5.25;;;4.75;;
14470;SDS011;7321;50.802;4.336;2023-05-10T11:02:56;6.35;;;4.82;;
14470;SDS011;7321;50.802;4.336;2023-05-10T11:05:24;5.35;;;4.85;;
14470;SDS011;7321;50.802;4.336;2023-05-10T11:07:51;5.75;;;4.50;;
14470;SDS011;7321;50.802;4.336;2023-05-10T11:10:21;6.00;;;5.40;;
14470;SDS011;7321;50.802;4.336;2023-05-10T11:13:07;4.90;;;4.50;;
14470;SDS011;7321;50.802;4.336;2023-05-10T11:15:35;4.97;;;4.55;;
14470;SDS011;7321;50.802;4.336;2023-05-10T11:20:58;4.70;;;4.18;;
14470;SDS011;7321;50.802;4.336;2023-05-10T11:23:32;6.32;;;5.10;;
14470;SDS011;7321;50.802;4.336;2023-05-10T11:26:15;5.32;;;4.72;;
14470;SDS011;7321;50.802;4.336;2023-05-10T11:28:45;5.55;;;5.05;;
14470;SDS011;7321;50.802;4.336;2023-05-10T11:31:15;5.38;;;4.80;;
14470;SDS011;7321;50.802;4.336;2023-05-10T11:33:43;4.53;;;4.22;;
14470;SDS011;7321;50.802;4.336;2023-05-10T11:36:20;4.50;;;4.10;;
14470;SDS011;7321;50.802;4.336;2023-05-10T11:38:51;4.22;;;3.83;;
14470;SDS011;7321;50.802;4.336;2023-05-10T11:41:18;4.72;;;4.32;;
14470;SDS011;7321;50.802;4.336;2023-05-10T11:43:47;4.68;;;4.22;;
14470;SDS011;7321;50.802;4.336;2023-05-10T11:46:14;6.35;;;4.88;;
14470;SDS011;7321;50.802;4.336;2023-05-10T11:48:42;6.00;;;4.97;;
14470;SDS011;7321;50.802;4.336;2023-05-10T11:51:08;4.63;;;4.22;;
14470;SDS011;7321;50.802;4.336;2023-05-10T11:53:35;5.45;;;4.95;;
14470;SDS011;7321;50.802;4.336;2023-05-10T11:58:31;6.30;;;5.70;;
14470;SDS011;7321;50.802;4.336;2023-05-10T12:01:01;6.05;;;5.43;;
14470;SDS011;7321;50.802;4.336;2023-05-10T12:03:28;6.40;;;5.78;;
14470;SDS011;7321;50.802;4.336;2023-05-10T12:05:54;6.13;;;5.53;;
14470;SDS011;7321;50.802;4.336;2023-05-10T12:08:22;7.53;;;6.93;;
14470;SDS011;7321;50.802;4.336;2023-05-10T12:10:51;7.10;;;6.38;;
14470;SDS011;7321;50.802;4.336;2023-05-10T12:13:28;7.20;;;5.97;;
14470;SDS011;7321;50.802;4.336;2023-05-10T12:15:57;4.97;;;4.47;;
14470;SDS011;7321;50.802;4.336;2023-05-10T12:18:23;5.25;;;4.70;;
14470;SDS011;7321;50.802;4.336;2023-05-10T12:20:53;5.30;;;4.80;;
14470;SDS011;7321;50.802;4.336;2023-05-10T12:23:20;5.47;;;4.97;;
14470;SDS011;7321;50.802;4.336;2023-05-10T12:25:46;6.78;;;6.20;;
14470;SDS011;7321;50.802;4.336;2023-05-10T12:28:12;6.93;;;6.28;;
14470;SDS011;7321;50.802;4.336;2023-05-10T12:30:38;7.35;;;6.45;;
14470;SDS011;7321;50.802;4.336;2023-05-10T12:33:11;6.70;;;6.00;;
14470;SDS011;7321;50.802;4.336;2023-05-10T12:35:48;6.35;;;5.85;;
14470;SDS011;7321;50.802;4.336;2023-05-10T12:41:05;7.88;;;6.22;;
14470;SDS011;7321;50.802;4.336;2023-05-10T12:43:36;6.90;;;6.20;;
14470;SDS011;7321;50.802;4.336;2023-05-10T12:46:04;7.50;;;6.40;;
14470;SDS011;7321;50.802;4.336;2023-05-10T12:48:30;6.38;;;5.78;;
14470;SDS011;7321;50.802;4.336;2023-05-10T12:50:56;6.53;;;5.90;;
14470;SDS011;7321;50.802;4.336;2023-05-10T12:53:26;5.68;;;5.18;;
14470;SDS011;7321;50.802;4.336;2023-05-10T12:55:52;6.35;;;5.38;;
14470;SDS011;7321;50.802;4.336;2023-05-10T12:58:18;5.05;;;4.60;;
14470;SDS011;7321;50.802;4.336;2023-05-10T13:00:44;5.95;;;5.38;;
14470;SDS011;7321;50.802;4.336;2023-05-10T13:03:10;4.82;;;4.43;;
14470;SDS011;7321;50.802;4.336;2023-05-10T13:05:36;5.78;;;4.82;;
14470;SDS011;7321;50.802;4.336;2023-05-10T13:08:01;4.25;;;3.88;;
14470;SDS011;7321;50.802;4.336;2023-05-10T13:10:29;5.40;;;4.68;;
14470;SDS011;7321;50.802;4.336;2023-05-10T13:12:58;6.97;;;3.38;;
14470;SDS011;7321;50.802;4.336;2023-05-10T13:15:25;3.33;;;3.03;;
14470;SDS011;7321;50.802;4.336;2023-05-10T13:17:51;4.15;;;3.63;;
14470;SDS011;7321;50.802;4.336;2023-05-10T13:20:18;5.60;;;3.97;;
14470;SDS011;7321;50.802;4.336;2023-05-10T13:22:44;5.65;;;4.07;;
14470;SDS011;7321;50.802;4.336;2023-05-10T13:25:10;5.80;;;5.00;;
14470;SDS011;7321;50.802;4.336;2023-05-10T13:27:39;7.97;;;5.72;;
14470;SDS011;7321;50.802;4.336;2023-05-10T13:30:06;9.00;;;5.75;;
14470;SDS011;7321;50.802;4.336;2023-05-10T13:32:32;6.30;;;5.70;;
14470;SDS011;7321;50.802;4.336;2023-05-10T13:34:58;6.38;;;5.55;;
14470;SDS011;7321;50.802;4.336;2023-05-10T13:37:24;7.65;;;6.35;;
14470;SDS011;7321;50.802;4.336;2023-05-10T13:39:50;8.52;;;6.55;;
14470;SDS011;7321;50.802;4.336;2023-05-10T13:42:17;7.70;;;6.20;;
14470;SDS011;7321;50.802;4.336;2023-05-10T13:44:43;6.20;;;5.25;;
14470;SDS011;7321;50.802;4.336;2023-05-10T13:47:09;7.03;;;6.25;;
14470;SDS011;7321;50.802;4.336;2023-05-10T13:49:35;7.82;;;6.97;;
14470;SDS011;7321;50.802;4.336;2023-05-10T13:52:01;8.70;;;7.90;;
14470;SDS011;7321;50.802;4.336;2023-05-10T13:54:37;8.52;;;6.65;;
14470;SDS011;7321;50.802;4.336;2023-05-10T13:57:03;8.77;;;7.70;;
14470;SDS011;7321;50.802;4.336;2023-05-10T13:59:29;7.63;;;6.82;;
14470;SDS011;7321;50.802;4.336;2023-05-10T14:01:58;9.18;;;6.50;;
14470;SDS011;7321;50.802;4.336;2023-05-10T14:04:24;9.68;;;7.28;;
14470;SDS011;7321;50.802;4.336;2023-05-10T14:06:50;9.00;;;7.50;;
14470;SDS011;7321;50.802;4.336;2023-05-10T14:09:17;9.23;;;7.60;;
14470;SDS011;7321;50.802;4.336;2023-05-10T14:11:44;8.60;;;7.80;;
14470;SDS011;7321;50.802;4.336;2023-05-10T14:14:10;10.35;;;8.70;;
14470;SDS011;7321;50.802;4.336;2023-05-10T14:16:37;8.85;;;7.82;;
14470;SDS011;7321;50.802;4.336;2023-05-10T14:19:07;9.63;;;8.35;;
14470;SDS011;7321;50.802;4.336;2023-05-10T14:21:33;10.80;;;8.93;;
14470;SDS011;7321;50.802;4.336;2023-05-10T14:23:59;9.85;;;8.85;;
14470;SDS011;7321;50.802;4.336;2023-05-10T14:26:25;9.43;;;8.45;;
14470;SDS011;7321;50.802;4.336;2023-05-10T14:28:51;9.90;;;8.57;;
14470;SDS011;7321;50.802;4.336;2023-05-10T14:31:17;9.85;;;8.43;;
14470;SDS011;7321;50.802;4.336;2023-05-10T14:33:45;9.88;;;8.40;;
14470;SDS011;7321;50.802;4.336;2023-05-10T14:36:14;10.50;;;9.00;;
14470;SDS011;7321;50.802;4.336;2023-05-10T14:38:40;10.25;;;9.25;;
14470;SDS011;7321;50.802;4.336;2023-05-10T14:41:06;10.35;;;9.02;;
14470;SDS011;7321;50.802;4.336;2023-05-10T14:43:32;11.85;;;9.55;;
14470;SDS011;7321;50.802;4.336;2023-05-10T14:45:58;12.45;;;10.07;;
14470;SDS011;7321;50.802;4.336;2023-05-10T14:48:24;10.60;;;9.50;;
14470;SDS011;7321;50.802;4.336;2023-05-10T14:50:49;11.45;;;10.25;;
14470;SDS011;7321;50.802;4.336;2023-05-10T14:53:20;11.57;;;10.10;;
14470;SDS011;7321;50.802;4.336;2023-05-10T14:55:46;12.95;;;11.30;;
14470;SDS011;7321;50.802;4.336;2023-05-10T14:58:12;13.77;;;10.77;;
14470;SDS011;7321;50.802;4.336;2023-05-10T15:00:38;14.50;;;10.38;;
14470;SDS011;7321;50.802;4.336;2023-05-10T15:03:03;12.75;;;10.07;;
14470;SDS011;7321;50.802;4.336;2023-05-10T15:05:29;11.98;;;10.60;;
14470;SDS011;7321;50.802;4.336;2023-05-10T15:07:55;12.35;;;10.88;;
14470;SDS011;7321;50.802;4.336;2023-05-10T15:10:21;12.90;;;11.02;;
14470;SDS011;7321;50.802;4.336;2023-05-10T15:12:47;14.20;;;11.10;;
14470;SDS011;7321;50.802;4.336;2023-05-10T15:15:13;10.88;;;9.75;;
14470;SDS011;7321;50.802;4.336;2023-05-10T15:17:38;10.30;;;8.70;;
14470;SDS011;7321;50.802;4.336;2023-05-10T15:20:04;11.70;;;8.35;;
14470;SDS011;7321;50.802;4.336;2023-05-10T15:22:31;10.65;;;7.70;;
14470;SDS011;7321;50.802;4.336;2023-05-10T15:24:57;7.90;;;6.43;;
14470;SDS011;7321;50.802;4.336;2023-05-10T15:27:24;7.60;;;5.18;;